Aviation Digital Data Service (ADDS)

Output produced by METARs form (1911 UTC 27 July 2016)
found at http://aviationweather.gov/adds/metars/
 
KERI 271722Z 2718/2818 31008KT P6SM SKC 
     FM280100 19005KT P6SM SCT250 
     FM281500 33005KT P6SM BKN250